sensor_id;sensor_type;location;lat;lon;timestamp;P1;durP1;ratioP1;P2;durP2;ratioP2
20314;SDS011;10315;50.958;13.080;2023-02-27T00:04:54;4.40;;;1.80;;
20314;SDS011;10315;50.958;13.080;2023-02-27T00:14:56;1.50;;;1.40;;
20314;SDS011;10315;50.958;13.080;2023-02-27T00:24:59;4.73;;;1.50;;
20314;SDS011;10315;50.958;13.080;2023-02-27T00:35:01;7.47;;;1.70;;
20314;SDS011;10315;50.958;13.080;2023-02-27T00:45:05;1.57;;;1.43;;
20314;SDS011;10315;50.958;13.080;2023-02-27T00:55:08;6.00;;;2.13;;
20314;SDS011;10315;50.958;13.080;2023-02-27T01:05:11;4.93;;;2.00;;
20314;SDS011;10315;50.958;13.080;2023-02-27T01:15:15;6.77;;;2.43;;
20314;SDS011;10315;50.958;13.080;2023-02-27T01:25:18;5.07;;;2.30;;
20314;SDS011;10315;50.958;13.080;2023-02-27T01:35:19;3.83;;;2.37;;
20314;SDS011;10315;50.958;13.080;2023-02-27T01:45:28;4.07;;;2.00;;
20314;SDS011;10315;50.958;13.080;2023-02-27T01:55:32;5.40;;;2.20;;
20314;SDS011;10315;50.958;13.080;2023-02-27T02:05:39;5.87;;;2.73;;
20314;SDS011;10315;50.958;13.080;2023-02-27T02:15:43;2.93;;;1.60;;
20314;SDS011;10315;50.958;13.080;2023-02-27T02:36:55;5.40;;;2.53;;
20314;SDS011;10315;50.958;13.080;2023-02-27T02:47:20;3.03;;;1.80;;
20314;SDS011;10315;50.958;13.080;2023-02-27T02:57:29;5.73;;;2.97;;
20314;SDS011;10315;50.958;13.080;2023-02-27T03:07:39;5.20;;;2.60;;
20314;SDS011;10315;50.958;13.080;2023-02-27T03:17:43;2.73;;;2.47;;
20314;SDS011;10315;50.958;13.080;2023-02-27T03:27:51;6.33;;;3.20;;
20314;SDS011;10315;50.958;13.080;2023-02-27T03:37:57;7.70;;;3.83;;
20314;SDS011;10315;50.958;13.080;2023-02-27T03:48:08;7.60;;;3.30;;
20314;SDS011;10315;50.958;13.080;2023-02-27T03:58:09;7.57;;;3.10;;
20314;SDS011;10315;50.958;13.080;2023-02-27T04:08:20;8.80;;;4.40;;
20314;SDS011;10315;50.958;13.080;2023-02-27T04:18:49;8.13;;;4.17;;
20314;SDS011;10315;50.958;13.080;2023-02-27T04:29:01;9.40;;;4.03;;
20314;SDS011;10315;50.958;13.080;2023-02-27T04:39:06;11.57;;;4.97;;
20314;SDS011;10315;50.958;13.080;2023-02-27T04:49:14;14.03;;;5.47;;
20314;SDS011;10315;50.958;13.080;2023-02-27T04:59:21;10.30;;;4.13;;
20314;SDS011;10315;50.958;13.080;2023-02-27T05:09:28;7.97;;;4.17;;
20314;SDS011;10315;50.958;13.080;2023-02-27T05:19:35;12.70;;;4.70;;
20314;SDS011;10315;50.958;13.080;2023-02-27T05:29:42;9.00;;;4.40;;
20314;SDS011;10315;50.958;13.080;2023-02-27T05:39:47;6.77;;;3.80;;
20314;SDS011;10315;50.958;13.080;2023-02-27T05:49:54;11.63;;;4.00;;
20314;SDS011;10315;50.958;13.080;2023-02-27T06:00:05;6.60;;;3.53;;
20314;SDS011;10315;50.958;13.080;2023-02-27T06:10:14;8.33;;;3.97;;
20314;SDS011;10315;50.958;13.080;2023-02-27T06:20:18;12.07;;;4.17;;
20314;SDS011;10315;50.958;13.080;2023-02-27T06:30:21;7.10;;;3.90;;
20314;SDS011;10315;50.958;13.080;2023-02-27T06:40:23;8.33;;;4.30;;
20314;SDS011;10315;50.958;13.080;2023-02-27T06:50:27;6.90;;;4.23;;
20314;SDS011;10315;50.958;13.080;2023-02-27T07:00:28;13.00;;;4.13;;
20314;SDS011;10315;50.958;13.080;2023-02-27T07:10:31;8.37;;;3.60;;
20314;SDS011;10315;50.958;13.080;2023-02-27T07:20:33;8.43;;;4.13;;
20314;SDS011;10315;50.958;13.080;2023-02-27T07:30:36;4.93;;;3.43;;
20314;SDS011;10315;50.958;13.080;2023-02-27T07:40:38;7.53;;;4.87;;
20314;SDS011;10315;50.958;13.080;2023-02-27T07:50:40;6.00;;;3.50;;
20314;SDS011;10315;50.958;13.080;2023-02-27T08:00:43;5.60;;;3.20;;
20314;SDS011;10315;50.958;13.080;2023-02-27T08:10:46;8.17;;;3.47;;
20314;SDS011;10315;50.958;13.080;2023-02-27T08:20:49;9.73;;;3.17;;
20314;SDS011;10315;50.958;13.080;2023-02-27T08:30:52;5.03;;;3.30;;
20314;SDS011;10315;50.958;13.080;2023-02-27T08:40:54;7.50;;;4.03;;
20314;SDS011;10315;50.958;13.080;2023-02-27T08:50:57;10.73;;;4.60;;
20314;SDS011;10315;50.958;13.080;2023-02-27T09:00:59;9.23;;;4.70;;
20314;SDS011;10315;50.958;13.080;2023-02-27T09:11:02;14.03;;;4.70;;
20314;SDS011;10315;50.958;13.080;2023-02-27T09:21:05;10.57;;;4.13;;
20314;SDS011;10315;50.958;13.080;2023-02-27T09:31:08;5.50;;;4.10;;
20314;SDS011;10315;50.958;13.080;2023-02-27T09:41:20;9.70;;;4.57;;
20314;SDS011;10315;50.958;13.080;2023-02-27T09:51:32;7.70;;;4.33;;
20314;SDS011;10315;50.958;13.080;2023-02-27T10:01:35;9.33;;;4.10;;
20314;SDS011;10315;50.958;13.080;2023-02-27T10:11:45;12.13;;;4.67;;
20314;SDS011;10315;50.958;13.080;2023-02-27T10:21:57;7.73;;;3.43;;
20314;SDS011;10315;50.958;13.080;2023-02-27T10:32:03;5.70;;;3.80;;
20314;SDS011;10315;50.958;13.080;2023-02-27T10:42:10;5.73;;;2.87;;
20314;SDS011;10315;50.958;13.080;2023-02-27T10:52:15;3.87;;;2.43;;
20314;SDS011;10315;50.958;13.080;2023-02-27T11:02:18;5.27;;;2.33;;
20314;SDS011;10315;50.958;13.080;2023-02-27T11:12:25;2.87;;;2.60;;
20314;SDS011;10315;50.958;13.080;2023-02-27T11:22:28;6.17;;;2.93;;
20314;SDS011;10315;50.958;13.080;2023-02-27T11:32:36;3.87;;;2.23;;
20314;SDS011;10315;50.958;13.080;2023-02-27T11:42:44;6.63;;;3.27;;
20314;SDS011;10315;50.958;13.080;2023-02-27T11:52:51;4.70;;;2.60;;
20314;SDS011;10315;50.958;13.080;2023-02-27T12:03:01;6.60;;;2.93;;
20314;SDS011;10315;50.958;13.080;2023-02-27T12:13:11;4.63;;;3.30;;
20314;SDS011;10315;50.958;13.080;2023-02-27T12:23:19;4.30;;;2.33;;
20314;SDS011;10315;50.958;13.080;2023-02-27T12:33:27;6.13;;;2.60;;
20314;SDS011;10315;50.958;13.080;2023-02-27T12:43:36;3.10;;;2.50;;
20314;SDS011;10315;50.958;13.080;2023-02-27T12:53:51;4.77;;;2.63;;
20314;SDS011;10315;50.958;13.080;2023-02-27T13:04:02;3.97;;;2.23;;
20314;SDS011;10315;50.958;13.080;2023-02-27T13:14:24;6.37;;;2.47;;
20314;SDS011;10315;50.958;13.080;2023-02-27T13:24:46;2.13;;;1.90;;
20314;SDS011;10315;50.958;13.080;2023-02-27T13:34:53;3.07;;;2.20;;
20314;SDS011;10315;50.958;13.080;2023-02-27T13:44:59;3.03;;;2.30;;
20314;SDS011;10315;50.958;13.080;2023-02-27T13:55:04;3.43;;;1.97;;
20314;SDS011;10315;50.958;13.080;2023-02-27T14:05:09;4.00;;;1.70;;
20314;SDS011;10315;50.958;13.080;2023-02-27T14:25:48;3.10;;;2.00;;
20314;SDS011;10315;50.958;13.080;2023-02-27T14:35:55;2.87;;;2.57;;
20314;SDS011;10315;50.958;13.080;2023-02-27T14:46:05;4.30;;;2.90;;
20314;SDS011;10315;50.958;13.080;2023-02-27T14:56:17;4.90;;;2.33;;
20314;SDS011;10315;50.958;13.080;2023-02-27T15:06:21;3.93;;;2.50;;
20314;SDS011;10315;50.958;13.080;2023-02-27T15:16:29;4.47;;;2.97;;
20314;SDS011;10315;50.958;13.080;2023-02-27T15:26:35;4.03;;;2.37;;
20314;SDS011;10315;50.958;13.080;2023-02-27T15:36:42;5.60;;;2.93;;
20314;SDS011;10315;50.958;13.080;2023-02-27T15:46:48;5.17;;;2.90;;
20314;SDS011;10315;50.958;13.080;2023-02-27T15:56:50;2.30;;;2.10;;
20314;SDS011;10315;50.958;13.080;2023-02-27T16:06:57;3.37;;;2.70;;
20314;SDS011;10315;50.958;13.080;2023-02-27T16:17:01;3.73;;;2.00;;
20314;SDS011;10315;50.958;13.080;2023-02-27T16:27:05;1.83;;;1.70;;
20314;SDS011;10315;50.958;13.080;2023-02-27T16:37:15;4.57;;;2.40;;
20314;SDS011;10315;50.958;13.080;2023-02-27T16:47:21;6.93;;;2.90;;
20314;SDS011;10315;50.958;13.080;2023-02-27T16:57:22;4.77;;;2.73;;
20314;SDS011;10315;50.958;13.080;2023-02-27T17:07:28;10.87;;;4.77;;
20314;SDS011;10315;50.958;13.080;2023-02-27T17:17:29;5.67;;;2.73;;
20314;SDS011;10315;50.958;13.080;2023-02-27T17:27:32;4.03;;;2.47;;
20314;SDS011;10315;50.958;13.080;2023-02-27T17:37:34;4.30;;;2.92;;
20314;SDS011;10315;50.958;13.080;2023-02-27T17:47:37;9.47;;;2.70;;
20314;SDS011;10315;50.958;13.080;2023-02-27T17:57:39;3.70;;;2.60;;
20314;SDS011;10315;50.958;13.080;2023-02-27T18:07:41;3.70;;;2.80;;
20314;SDS011;10315;50.958;13.080;2023-02-27T18:17:43;6.37;;;3.63;;
20314;SDS011;10315;50.958;13.080;2023-02-27T18:27:46;11.27;;;3.70;;
20314;SDS011;10315;50.958;13.080;2023-02-27T18:37:48;10.37;;;4.03;;
20314;SDS011;10315;50.958;13.080;2023-02-27T18:47:51;8.13;;;3.87;;
20314;SDS011;10315;50.958;13.080;2023-02-27T18:57:53;8.70;;;4.77;;
20314;SDS011;10315;50.958;13.080;2023-02-27T19:07:55;9.63;;;4.53;;
20314;SDS011;10315;50.958;13.080;2023-02-27T19:17:57;9.50;;;3.40;;
20314;SDS011;10315;50.958;13.080;2023-02-27T19:28:00;11.03;;;5.60;;
20314;SDS011;10315;50.958;13.080;2023-02-27T19:38:04;9.80;;;4.13;;
20314;SDS011;10315;50.958;13.080;2023-02-27T19:48:07;6.83;;;4.30;;
20314;SDS011;10315;50.958;13.080;2023-02-27T19:58:10;10.63;;;5.17;;
20314;SDS011;10315;50.958;13.080;2023-02-27T20:08:13;9.17;;;4.73;;
20314;SDS011;10315;50.958;13.080;2023-02-27T20:18:15;10.20;;;4.30;;
20314;SDS011;10315;50.958;13.080;2023-02-27T20:28:18;7.67;;;4.40;;
20314;SDS011;10315;50.958;13.080;2023-02-27T20:38:20;7.07;;;4.50;;
20314;SDS011;10315;50.958;13.080;2023-02-27T20:48:23;9.23;;;4.23;;
20314;SDS011;10315;50.958;13.080;2023-02-27T20:58:24;9.73;;;4.43;;
20314;SDS011;10315;50.958;13.080;2023-02-27T21:08:27;9.57;;;4.57;;
20314;SDS011;10315;50.958;13.080;2023-02-27T21:18:29;9.67;;;5.23;;
20314;SDS011;10315;50.958;13.080;2023-02-27T21:28:32;11.40;;;5.90;;
20314;SDS011;10315;50.958;13.080;2023-02-27T21:38:45;12.33;;;6.23;;
20314;SDS011;10315;50.958;13.080;2023-02-27T21:48:49;10.53;;;6.17;;
20314;SDS011;10315;50.958;13.080;2023-02-27T21:58:51;10.60;;;6.03;;
20314;SDS011;10315;50.958;13.080;2023-02-27T22:09:08;11.37;;;6.07;;
20314;SDS011;10315;50.958;13.080;2023-02-27T22:19:10;13.23;;;6.90;;
20314;SDS011;10315;50.958;13.080;2023-02-27T22:29:14;14.47;;;7.17;;
20314;SDS011;10315;50.958;13.080;2023-02-27T22:39:16;11.13;;;6.50;;
20314;SDS011;10315;50.958;13.080;2023-02-27T22:49:20;15.43;;;7.50;;
20314;SDS011;10315;50.958;13.080;2023-02-27T22:59:29;14.80;;;6.90;;
20314;SDS011;10315;50.958;13.080;2023-02-27T23:09:32;14.27;;;6.67;;
20314;SDS011;10315;50.958;13.080;2023-02-27T23:19:34;16.93;;;7.47;;
20314;SDS011;10315;50.958;13.080;2023-02-27T23:29:37;15.47;;;7.13;;
20314;SDS011;10315;50.958;13.080;2023-02-27T23:39:38;15.17;;;7.57;;
20314;SDS011;10315;50.958;13.080;2023-02-27T23:49:41;20.23;;;8.77;;
20314;SDS011;10315;50.958;13.080;2023-02-27T23:59:43;15.57;;;7.50;;
